createdAt,value
2019-06-26T00:00:51.337Z,6.30
2019-06-26T00:03:25.349Z,6.30
2019-06-26T00:05:59.310Z,6.30
2019-06-26T00:08:33.264Z,6.40
2019-06-26T00:11:07.235Z,6.35
2019-06-26T00:13:41.386Z,6.55
2019-06-26T00:16:15.435Z,6.95
2019-06-26T00:18:49.515Z,5.95
2019-06-26T00:21:23.659Z,7.08
2019-06-26T00:23:58.290Z,6.40
2019-06-26T00:26:32.396Z,6.80
2019-06-26T00:29:06.593Z,7.75
2019-06-26T00:31:40.841Z,7.33
2019-06-26T00:34:15.095Z,10.68
2019-06-26T00:36:49.310Z,7.53
2019-06-26T00:39:23.401Z,7.47
2019-06-26T00:41:57.658Z,7.92
2019-06-26T00:44:31.877Z,8.90
2019-06-26T00:47:05.892Z,6.95
2019-06-26T00:49:39.913Z,6.92
2019-06-26T00:52:14.174Z,9.93
2019-06-26T00:54:48.424Z,10.23
2019-06-26T00:57:22.420Z,7.80
2019-06-26T00:59:56.435Z,8.15
2019-06-26T01:02:30.654Z,8.10
2019-06-26T01:05:05.422Z,7.45
2019-06-26T01:07:39.409Z,9.40
2019-06-26T01:10:13.900Z,12.70
2019-06-26T01:12:48.162Z,7.67
2019-06-26T01:15:22.108Z,7.30
2019-06-26T01:17:56.462Z,8.43
2019-06-26T01:20:30.346Z,17.07
2019-06-26T01:23:04.375Z,9.08
2019-06-26T01:25:38.474Z,7.97
2019-06-26T01:28:12.496Z,10.20
2019-06-26T01:30:46.300Z,8.05
2019-06-26T01:33:20.672Z,10.32
2019-06-26T01:35:54.896Z,8.25
2019-06-26T01:38:28.751Z,10.15
2019-06-26T01:41:02.814Z,8.33
2019-06-26T01:43:36.621Z,7.30
2019-06-26T01:46:10.662Z,10.85
2019-06-26T01:48:44.968Z,11.68
2019-06-26T01:51:19.258Z,11.35
2019-06-26T01:53:53.175Z,11.83
2019-06-26T01:56:27.466Z,10.95
2019-06-26T01:59:01.555Z,9.73
2019-06-26T02:01:35.401Z,8.60
2019-06-26T02:04:09.331Z,15.95
2019-06-26T02:06:43.664Z,9.08
2019-06-26T02:09:17.593Z,10.08
2019-06-26T02:11:51.804Z,10.03
2019-06-26T02:14:31.274Z,9.30
2019-06-26T02:17:01.375Z,10.75
2019-06-26T02:19:35.220Z,11.75
2019-06-26T02:22:09.295Z,11.00
2019-06-26T02:24:43.057Z,12.30
2019-06-26T02:27:17.267Z,12.50
2019-06-26T02:29:51.399Z,15.23
2019-06-26T02:32:25.125Z,12.25
2019-06-26T02:34:59.229Z,11.95
2019-06-26T02:37:33.091Z,14.58
2019-06-26T02:40:08.101Z,15.80
2019-06-26T02:42:42.032Z,12.88
2019-06-26T02:45:16.201Z,14.10
2019-06-26T02:47:50.231Z,14.85
2019-06-26T02:50:24.104Z,12.15
2019-06-26T02:52:57.967Z,14.80
2019-06-26T02:55:32.251Z,15.43
2019-06-26T02:58:06.477Z,12.25
2019-06-26T03:00:40.362Z,15.25
2019-06-26T03:03:14.779Z,16.17
2019-06-26T03:05:48.775Z,18.67
2019-06-26T03:08:22.587Z,18.37
2019-06-26T03:10:56.588Z,17.00
2019-06-26T03:13:30.667Z,17.77
2019-06-26T03:16:04.837Z,18.80
2019-06-26T03:18:38.853Z,18.87
2019-06-26T03:21:12.736Z,20.25
2019-06-26T03:23:46.620Z,21.20
2019-06-26T03:26:20.774Z,20.90
2019-06-26T03:28:54.648Z,18.40
2019-06-26T03:31:28.793Z,19.92
2019-06-26T03:34:02.676Z,22.70
2019-06-26T03:36:36.735Z,18.85
2019-06-26T03:39:10.675Z,20.27
2019-06-26T03:41:44.788Z,18.55
2019-06-26T03:44:18.959Z,21.27
2019-06-26T03:46:52.986Z,24.50
2019-06-26T03:49:27.153Z,24.77
2019-06-26T03:52:01.294Z,20.27
2019-06-26T03:54:35.508Z,19.90
2019-06-26T03:57:09.514Z,23.77
2019-06-26T03:59:43.685Z,27.45
2019-06-26T04:02:17.749Z,22.67
2019-06-26T04:04:51.702Z,24.98
2019-06-26T04:07:25.871Z,22.20
2019-06-26T04:10:00.364Z,22.93
2019-06-26T04:12:34.877Z,19.87
2019-06-26T04:15:09.322Z,20.68
2019-06-26T04:17:43.624Z,19.67
2019-06-26T04:20:17.816Z,15.10
2019-06-26T04:22:51.883Z,14.78
2019-06-26T04:25:25.766Z,15.83
2019-06-26T04:28:00.281Z,14.98
2019-06-26T04:30:34.755Z,15.30
2019-06-26T04:33:08.858Z,11.70
2019-06-26T04:35:42.947Z,10.13
2019-06-26T04:38:16.754Z,11.03
2019-06-26T04:40:50.863Z,7.95
2019-06-26T04:43:24.682Z,9.30
2019-06-26T04:45:58.985Z,8.95
2019-06-26T04:48:33.188Z,9.10
2019-06-26T04:51:07.372Z,9.40
2019-06-26T04:53:41.486Z,10.10
2019-06-26T04:56:15.605Z,6.83
2019-06-26T04:58:50.101Z,6.42
2019-06-26T05:01:24.310Z,18.65
2019-06-26T05:03:58.474Z,11.22
2019-06-26T05:06:32.660Z,8.98
2019-06-26T05:09:07.927Z,7.75
2019-06-26T05:11:42.077Z,9.60
2019-06-26T05:14:16.110Z,8.45
2019-06-26T05:16:50.383Z,7.12
2019-06-26T05:19:24.714Z,7.45
2019-06-26T05:21:58.761Z,7.75
2019-06-26T05:24:32.811Z,7.97
2019-06-26T05:27:06.656Z,9.40
2019-06-26T05:29:40.430Z,4.78
2019-06-26T05:32:14.330Z,5.67
2019-06-26T05:34:48.190Z,11.00
2019-06-26T05:37:22.256Z,6.42
2019-06-26T05:39:56.060Z,6.22
2019-06-26T05:42:29.863Z,7.10
2019-06-26T05:45:04.397Z,7.12
2019-06-26T05:47:38.434Z,11.50
2019-06-26T05:50:13.086Z,8.08
2019-06-26T05:52:47.359Z,5.78
2019-06-26T05:55:21.190Z,7.60
2019-06-26T05:57:55.186Z,8.73
2019-06-26T06:00:29.024Z,7.97
2019-06-26T06:03:02.963Z,7.28
2019-06-26T06:05:36.704Z,8.93
2019-06-26T06:08:10.565Z,6.45
2019-06-26T06:10:44.564Z,7.03
2019-06-26T06:13:18.662Z,12.40
2019-06-26T06:15:52.354Z,13.75
2019-06-26T06:18:26.120Z,10.45
2019-06-26T06:20:59.957Z,6.15
2019-06-26T06:23:34.312Z,9.28
2019-06-26T06:26:09.749Z,5.80
2019-06-26T06:28:43.742Z,8.93
2019-06-26T06:31:17.672Z,6.50
2019-06-26T06:33:51.590Z,9.43
2019-06-26T06:36:25.830Z,4.87
2019-06-26T06:38:59.569Z,6.30
2019-06-26T06:41:33.819Z,9.78
2019-06-26T06:44:07.801Z,6.45
2019-06-26T06:46:41.890Z,7.87
2019-06-26T06:49:16.123Z,4.83
2019-06-26T06:51:50.038Z,5.45
2019-06-26T06:54:24.105Z,6.28
2019-06-26T06:56:58.257Z,7.40
2019-06-26T06:59:32.519Z,5.05
2019-06-26T07:02:06.943Z,5.53
2019-06-26T07:04:41.208Z,9.98
2019-06-26T07:07:15.265Z,8.68
2019-06-26T07:09:49.302Z,7.37
2019-06-26T07:12:23.634Z,5.85
2019-06-26T07:14:57.642Z,7.45
2019-06-26T07:17:31.500Z,4.80
2019-06-26T07:20:06.561Z,9.35
2019-06-26T07:22:40.691Z,4.78
2019-06-26T07:25:15.203Z,11.18
2019-06-26T07:27:49.474Z,6.53
2019-06-26T07:30:24.090Z,4.53
2019-06-26T07:32:57.961Z,7.25
2019-06-26T07:35:31.954Z,6.62
2019-06-26T07:38:05.912Z,7.42
2019-06-26T07:40:40.060Z,5.17
2019-06-26T07:43:16.563Z,6.20
2019-06-26T07:45:50.352Z,3.45
2019-06-26T07:48:24.274Z,4.42
2019-06-26T07:50:58.591Z,6.65
2019-06-26T07:53:32.510Z,6.10
2019-06-26T07:56:06.869Z,7.60
2019-06-26T07:58:40.996Z,6.85
2019-06-26T08:01:15.084Z,4.47
2019-06-26T08:03:49.187Z,4.33
2019-06-26T08:06:23.462Z,5.08
2019-06-26T08:08:57.424Z,9.30
2019-06-26T08:11:31.475Z,3.33
2019-06-26T08:14:05.444Z,5.08
2019-06-26T08:16:39.689Z,5.72
2019-06-26T08:19:13.876Z,6.08
2019-06-26T08:21:47.915Z,10.88
2019-06-26T08:24:22.023Z,5.37
2019-06-26T08:26:56.377Z,4.92
2019-06-26T08:29:30.835Z,5.78
2019-06-26T08:32:07.303Z,4.30
2019-06-26T08:34:41.322Z,5.28
2019-06-26T08:37:15.219Z,7.00
2019-06-26T08:39:49.244Z,5.12
2019-06-26T08:42:23.396Z,4.37
2019-06-26T08:44:57.340Z,5.62
2019-06-26T08:47:31.322Z,6.78
2019-06-26T08:50:06.158Z,7.42
2019-06-26T08:52:40.345Z,8.73
2019-06-26T08:55:15.074Z,6.28
2019-06-26T08:57:49.014Z,10.85
2019-06-26T09:00:23.418Z,8.35
2019-06-26T09:02:57.324Z,6.22
2019-06-26T09:05:46.956Z,6.65
2019-06-26T09:08:07.163Z,10.48
2019-06-26T09:10:44.699Z,7.15
2019-06-26T09:13:16.908Z,12.37
2019-06-26T09:15:51.017Z,5.62
2019-06-26T09:18:35.480Z,9.35
2019-06-26T09:21:01.301Z,6.45
2019-06-26T09:23:36.366Z,8.13
2019-06-26T09:26:10.514Z,9.53
2019-06-26T09:28:44.551Z,8.58
2019-06-26T09:31:18.476Z,8.85
2019-06-26T09:33:52.640Z,6.62
2019-06-26T09:36:26.766Z,7.75
2019-06-26T09:39:00.980Z,7.85
2019-06-26T09:41:35.069Z,12.43
2019-06-26T09:44:09.224Z,8.20
2019-06-26T09:46:43.473Z,6.90
2019-06-26T09:49:17.340Z,5.50
2019-06-26T09:51:51.068Z,7.67
2019-06-26T09:54:25.649Z,10.18
2019-06-26T09:57:00.005Z,7.45
2019-06-26T09:59:34.124Z,6.55
2019-06-26T10:02:08.284Z,12.70
2019-06-26T10:04:42.785Z,9.00
2019-06-26T10:07:16.824Z,6.30
2019-06-26T10:09:51.231Z,6.05
2019-06-26T10:12:25.647Z,8.88
2019-06-26T10:14:59.641Z,7.25
2019-06-26T10:17:33.824Z,8.60
2019-06-26T10:20:08.389Z,8.93
2019-06-26T10:22:42.489Z,10.25
2019-06-26T10:25:17.120Z,8.03
2019-06-26T10:27:51.230Z,12.10
2019-06-26T10:30:25.557Z,10.88
2019-06-26T10:32:59.629Z,11.83
2019-06-26T10:35:33.811Z,10.63
2019-06-26T10:38:07.911Z,9.50
2019-06-26T10:40:42.067Z,9.60
2019-06-26T10:43:15.904Z,8.33
2019-06-26T10:45:50.163Z,13.20
2019-06-26T10:48:24.204Z,10.08
2019-06-26T10:50:59.225Z,11.88
2019-06-26T10:53:33.468Z,10.13
2019-06-26T10:56:09.414Z,14.98
2019-06-26T10:58:43.496Z,8.68
2019-06-26T11:01:17.753Z,9.78
2019-06-26T11:03:51.854Z,9.90
2019-06-26T11:06:26.364Z,8.33
2019-06-26T11:09:00.385Z,4.72
2019-06-26T11:11:34.365Z,6.62
2019-06-26T11:14:08.598Z,7.65
2019-06-26T11:16:43.083Z,7.50
2019-06-26T11:19:17.184Z,7.35
2019-06-26T11:21:51.241Z,5.17
2019-06-26T11:24:25.450Z,7.25
2019-06-26T11:26:59.609Z,6.22
2019-06-26T11:29:33.906Z,6.95
2019-06-26T11:32:09.839Z,6.85
2019-06-26T11:34:44.120Z,6.97
2019-06-26T11:37:18.088Z,8.35
2019-06-26T11:39:52.703Z,7.58
2019-06-26T11:42:26.652Z,7.78
2019-06-26T11:45:01.100Z,8.83
2019-06-26T11:47:38.149Z,5.30
2019-06-26T11:50:13.840Z,6.80
2019-06-26T11:52:47.857Z,5.05
2019-06-26T11:55:22.478Z,5.67
2019-06-26T11:57:56.867Z,7.28
2019-06-26T12:00:31.460Z,4.62
2019-06-26T12:03:05.715Z,4.42
2019-06-26T12:05:39.766Z,4.72
2019-06-26T12:08:14.268Z,5.50
2019-06-26T12:10:48.207Z,4.65
2019-06-26T12:13:22.335Z,5.35
2019-06-26T12:15:56.444Z,6.33
2019-06-26T12:18:30.674Z,7.12
2019-06-26T12:21:05.235Z,4.62
2019-06-26T12:23:39.468Z,6.30
2019-06-26T12:26:13.520Z,4.37
2019-06-26T12:28:47.812Z,12.20
2019-06-26T12:31:22.088Z,8.53
2019-06-26T12:33:56.212Z,5.28
2019-06-26T12:36:30.504Z,5.08
2019-06-26T12:39:06.511Z,4.72
2019-06-26T12:41:40.841Z,4.53
2019-06-26T12:44:14.961Z,5.17
2019-06-26T12:46:48.893Z,4.08
2019-06-26T12:49:22.945Z,4.87
2019-06-26T12:51:57.464Z,9.10
2019-06-26T12:54:31.674Z,5.70
2019-06-26T12:57:05.864Z,7.78
2019-06-26T12:59:55.619Z,5.78
2019-06-26T13:02:16.191Z,9.18
2019-06-26T13:04:50.334Z,9.58
2019-06-26T13:07:24.298Z,6.78
2019-06-26T13:09:58.119Z,7.40
2019-06-26T13:12:31.980Z,5.08
2019-06-26T13:15:07.684Z,8.88
2019-06-26T13:17:41.901Z,7.10
2019-06-26T13:20:16.368Z,5.55
2019-06-26T13:22:50.460Z,5.85
2019-06-26T13:25:24.544Z,7.75
2019-06-26T13:27:58.605Z,4.85
2019-06-26T13:30:37.166Z,4.53
2019-06-26T13:33:11.424Z,6.45
2019-06-26T13:35:45.321Z,4.55
2019-06-26T13:38:19.859Z,6.33
2019-06-26T13:40:54.006Z,6.97
2019-06-26T13:43:28.074Z,4.33
2019-06-26T13:46:02.254Z,6.27
2019-06-26T13:48:36.387Z,5.10
2019-06-26T13:51:10.519Z,5.08
2019-06-26T13:53:44.640Z,6.80
2019-06-26T13:56:18.781Z,5.20
2019-06-26T13:58:52.922Z,4.72
2019-06-26T14:01:27.043Z,5.65
2019-06-26T14:04:01.111Z,4.80
2019-06-26T14:06:35.659Z,3.98
2019-06-26T14:09:09.941Z,5.08
2019-06-26T14:11:43.972Z,4.60
2019-06-26T14:14:17.975Z,8.68
2019-06-26T14:16:52.548Z,6.40
2019-06-26T14:19:26.972Z,6.92
2019-06-26T14:22:03.925Z,5.40
2019-06-26T14:24:37.865Z,6.45
2019-06-26T14:27:13.101Z,5.42
2019-06-26T14:29:49.559Z,4.80
2019-06-26T14:32:26.781Z,4.47
2019-06-26T14:35:01.278Z,3.95
2019-06-26T14:37:35.266Z,3.05
2019-06-26T14:40:09.616Z,3.83
2019-06-26T14:42:43.540Z,7.87
2019-06-26T14:45:17.951Z,5.80
2019-06-26T14:47:51.628Z,6.95
2019-06-26T14:50:26.133Z,6.12
2019-06-26T14:53:00.519Z,4.58
2019-06-26T14:55:34.534Z,6.00
2019-06-26T14:58:09.027Z,4.97
2019-06-26T15:00:43.143Z,3.20
2019-06-26T15:03:17.329Z,2.42
2019-06-26T15:05:51.327Z,8.05
2019-06-26T15:08:25.273Z,9.35
2019-06-26T15:10:58.909Z,6.12
2019-06-26T15:13:33.097Z,5.15
2019-06-26T15:16:07.319Z,4.40
2019-06-26T15:18:41.579Z,2.37
2019-06-26T15:21:15.498Z,3.52
2019-06-26T15:23:49.344Z,4.42
2019-06-26T15:26:23.523Z,4.22
2019-06-26T15:28:57.554Z,3.20
2019-06-26T15:31:31.585Z,4.97
2019-06-26T15:34:05.492Z,6.47
2019-06-26T15:36:39.350Z,4.47
2019-06-26T15:39:13.310Z,4.40
2019-06-26T15:41:47.798Z,6.62
2019-06-26T15:44:21.773Z,3.05
2019-06-26T15:46:55.782Z,4.03
2019-06-26T15:49:29.768Z,3.87
2019-06-26T15:52:14.408Z,3.67
2019-06-26T15:54:39.704Z,5.13
2019-06-26T15:57:13.393Z,2.95
2019-06-26T15:59:47.518Z,1.82
2019-06-26T16:02:21.557Z,7.03
2019-06-26T16:04:55.704Z,2.17
2019-06-26T16:07:29.755Z,4.90
2019-06-26T16:10:04.665Z,3.10
2019-06-26T16:12:38.592Z,3.17
2019-06-26T16:15:13.544Z,5.22
2019-06-26T16:17:47.966Z,3.80
2019-06-26T16:20:22.151Z,4.17
2019-06-26T16:22:56.289Z,3.62
2019-06-26T16:25:30.356Z,4.33
2019-06-26T16:28:05.994Z,2.55
2019-06-26T16:30:40.499Z,3.60
2019-06-26T16:33:14.661Z,3.30
2019-06-26T16:35:48.655Z,6.20
2019-06-26T16:38:22.738Z,5.95
2019-06-26T16:40:56.534Z,6.17
2019-06-26T16:43:33.321Z,5.08
2019-06-26T16:46:07.283Z,4.42
2019-06-26T16:48:41.321Z,4.58
2019-06-26T16:51:15.251Z,3.45
2019-06-26T16:53:49.192Z,5.12
2019-06-26T16:56:23.450Z,5.05
2019-06-26T16:58:57.579Z,5.37
2019-06-26T17:01:31.764Z,5.70
2019-06-26T17:04:05.763Z,3.98
2019-06-26T17:06:39.889Z,5.15
2019-06-26T17:09:13.715Z,1.98
2019-06-26T17:11:47.713Z,3.60
2019-06-26T17:14:22.033Z,5.95
2019-06-26T17:16:56.108Z,3.50
2019-06-26T17:19:30.145Z,3.92
2019-06-26T17:22:05.194Z,4.90
2019-06-26T17:24:39.281Z,3.60
2019-06-26T17:27:13.436Z,4.20
2019-06-26T17:29:47.644Z,3.65
2019-06-26T17:32:21.830Z,9.80
2019-06-26T17:34:55.791Z,5.70
2019-06-26T17:37:29.889Z,4.17
2019-06-26T17:40:04.282Z,3.98
2019-06-26T17:42:38.284Z,5.60
2019-06-26T17:45:12.312Z,8.98
2019-06-26T17:47:46.160Z,11.03
2019-06-26T17:50:20.433Z,9.13
2019-06-26T17:52:54.598Z,5.00
2019-06-26T17:55:31.119Z,7.72
2019-06-26T17:58:05.118Z,6.03
2019-06-26T18:00:39.617Z,6.60
2019-06-26T18:03:13.930Z,11.95
2019-06-26T18:05:47.798Z,4.53
2019-06-26T18:08:21.638Z,6.37
2019-06-26T18:10:55.499Z,7.15
2019-06-26T18:13:31.160Z,9.05
2019-06-26T18:16:05.282Z,6.78
2019-06-26T18:18:39.338Z,5.30
2019-06-26T18:21:14.279Z,5.28
2019-06-26T18:23:48.306Z,5.65
2019-06-26T18:26:22.301Z,9.05
2019-06-26T18:28:56.438Z,3.83
2019-06-26T18:31:30.774Z,5.92
2019-06-26T18:34:05.022Z,5.28
2019-06-26T18:36:39.979Z,3.87
2019-06-26T18:39:13.999Z,8.95
2019-06-26T18:41:47.858Z,10.48
2019-06-26T18:44:21.820Z,3.15
2019-06-26T18:46:55.837Z,8.00
2019-06-26T18:49:29.919Z,3.95
2019-06-26T18:52:07.630Z,4.70
2019-06-26T18:54:39.913Z,4.70
2019-06-26T18:57:13.652Z,4.22
2019-06-26T18:59:48.651Z,5.22
2019-06-26T19:02:22.690Z,7.50
2019-06-26T19:04:57.900Z,7.40
2019-06-26T19:07:31.820Z,3.95
2019-06-26T19:10:06.905Z,5.17
2019-06-26T19:12:40.698Z,4.12
2019-06-26T19:15:14.864Z,7.72
2019-06-26T19:17:48.865Z,6.62
2019-06-26T19:20:26.325Z,9.48
2019-06-26T19:23:00.357Z,3.98
2019-06-26T19:25:34.204Z,6.08
2019-06-26T19:28:08.281Z,8.35
2019-06-26T19:30:42.324Z,6.58
2019-06-26T19:33:16.244Z,4.70
2019-06-26T19:35:50.465Z,6.97
2019-06-26T19:38:24.474Z,6.72
2019-06-26T19:40:58.646Z,5.87
2019-06-26T19:43:32.666Z,6.75
2019-06-26T19:46:06.877Z,4.28
2019-06-26T19:48:40.726Z,6.22
2019-06-26T19:51:14.805Z,8.13
2019-06-26T19:53:48.705Z,4.62
2019-06-26T19:56:23.146Z,7.08
2019-06-26T19:58:57.045Z,8.15
2019-06-26T20:01:31.141Z,6.50
2019-06-26T20:04:05.359Z,6.20
2019-06-26T20:06:42.547Z,6.92
2019-06-26T20:09:16.779Z,4.30
2019-06-26T20:11:50.618Z,5.85
2019-06-26T20:14:24.485Z,5.60
2019-06-26T20:16:58.599Z,6.55
2019-06-26T20:19:32.419Z,7.50
2019-06-26T20:22:07.279Z,6.00
2019-06-26T20:24:44.649Z,7.55
2019-06-26T20:27:17.419Z,4.83
2019-06-26T20:29:51.529Z,8.13
2019-06-26T20:32:25.819Z,6.05
2019-06-26T20:34:59.878Z,4.78
2019-06-26T20:37:33.659Z,4.65
2019-06-26T20:40:07.900Z,4.80
2019-06-26T20:42:41.951Z,3.73
2019-06-26T20:45:17.739Z,4.75
2019-06-26T20:47:51.799Z,3.10
2019-06-26T20:50:25.750Z,3.52
2019-06-26T20:52:59.787Z,2.83
2019-06-26T20:55:33.819Z,5.83
2019-06-26T20:58:07.799Z,6.15
2019-06-26T21:00:41.800Z,4.47
2019-06-26T21:03:15.859Z,7.62
2019-06-26T21:05:49.592Z,5.30
2019-06-26T21:08:23.919Z,3.58
2019-06-26T21:10:58.074Z,4.33
2019-06-26T21:13:32.017Z,4.05
2019-06-26T21:16:06.108Z,7.35
2019-06-26T21:18:40.481Z,12.23
2019-06-26T21:21:14.516Z,4.03
2019-06-26T21:23:48.751Z,6.37
2019-06-26T21:26:22.905Z,8.53
2019-06-26T21:28:59.949Z,5.35
2019-06-26T21:31:32.930Z,8.70
2019-06-26T21:34:07.192Z,4.40
2019-06-26T21:36:41.222Z,5.35
2019-06-26T21:39:15.210Z,3.75
2019-06-26T21:41:49.259Z,3.58
2019-06-26T21:44:23.472Z,9.93
2019-06-26T21:46:57.282Z,5.55
2019-06-26T21:49:31.379Z,8.95
2019-06-26T21:52:05.472Z,11.75
2019-06-26T21:54:39.602Z,7.33
2019-06-26T21:57:13.840Z,6.47
2019-06-26T21:59:47.915Z,6.25
2019-06-26T22:02:22.060Z,5.47
2019-06-26T22:04:55.973Z,8.18
2019-06-26T22:07:30.031Z,4.70
2019-06-26T22:10:05.182Z,7.47
2019-06-26T22:12:39.495Z,8.10
2019-06-26T22:15:13.982Z,7.08
2019-06-26T22:17:48.065Z,5.95
2019-06-26T22:20:22.440Z,10.80
2019-06-26T22:22:56.349Z,7.72
2019-06-26T22:25:30.453Z,5.67
2019-06-26T22:28:04.399Z,9.68
2019-06-26T22:30:38.485Z,8.33
2019-06-26T22:33:12.628Z,9.78
2019-06-26T22:35:46.936Z,6.00
2019-06-26T22:38:24.039Z,6.50
2019-06-26T22:40:58.052Z,7.90
2019-06-26T22:43:32.209Z,8.50
2019-06-26T22:46:05.952Z,6.87
2019-06-26T22:48:40.071Z,6.10
2019-06-26T22:51:14.185Z,8.68
2019-06-26T22:53:48.189Z,11.33
2019-06-26T22:56:22.269Z,6.83
2019-06-26T22:58:56.272Z,8.03
2019-06-26T23:01:30.471Z,16.75
2019-06-26T23:04:04.412Z,9.88
2019-06-26T23:06:38.605Z,7.28
2019-06-26T23:09:12.712Z,8.23
2019-06-26T23:11:46.787Z,9.28
2019-06-26T23:14:20.713Z,7.10
2019-06-26T23:16:54.841Z,5.22
2019-06-26T23:19:28.754Z,8.05
2019-06-26T23:22:02.740Z,7.78
2019-06-26T23:24:36.710Z,6.97
2019-06-26T23:27:10.735Z,7.67
2019-06-26T23:29:44.879Z,8.28
2019-06-26T23:32:18.882Z,7.78
2019-06-26T23:34:52.832Z,10.13
2019-06-26T23:37:27.102Z,7.28
2019-06-26T23:40:00.944Z,9.20
2019-06-26T23:42:35.036Z,5.85
2019-06-26T23:45:09.960Z,7.33
2019-06-26T23:47:44.000Z,6.65
2019-06-26T23:50:17.959Z,7.70
2019-06-26T23:52:52.192Z,5.62
2019-06-26T23:55:26.291Z,5.65
2019-06-26T23:58:00.295Z,7.55
